createdAt,value
2019-03-05T00:01:53.631Z,5.53
2019-03-05T00:04:21.552Z,5.07
2019-03-05T00:06:49.459Z,3.53
2019-03-05T00:09:20.902Z,6.70
2019-03-05T00:11:48.931Z,4.20
2019-03-05T00:14:18.759Z,7.13
2019-03-05T00:16:46.466Z,5.43
2019-03-05T00:19:14.365Z,6.20
2019-03-05T00:21:42.283Z,5.10
2019-03-05T00:24:28.245Z,5.60
2019-03-05T00:26:56.137Z,5.03
2019-03-05T00:29:38.651Z,4.30
2019-03-05T00:32:06.626Z,3.90
2019-03-05T00:34:41.203Z,3.70
2019-03-05T00:37:31.550Z,2.87
2019-03-05T00:40:01.707Z,2.30
2019-03-05T00:42:47.658Z,4.97
2019-03-05T00:45:33.592Z,4.37
2019-03-05T00:48:19.311Z,3.40
2019-03-05T00:50:51.026Z,4.60
2019-03-05T00:53:44.119Z,4.17
2019-03-05T00:56:17.496Z,3.93
2019-03-05T00:59:04.652Z,3.47
2019-03-05T01:01:57.982Z,5.03
2019-03-05T01:04:47.891Z,3.33
2019-03-05T01:07:15.928Z,3.57
2019-03-05T01:09:43.848Z,3.53
2019-03-05T01:12:13.015Z,5.33
2019-03-05T01:14:41.554Z,2.60
2019-03-05T01:17:09.476Z,3.10
2019-03-05T01:19:37.348Z,2.43
2019-03-05T01:22:05.387Z,4.40
2019-03-05T01:24:33.299Z,3.77
2019-03-05T01:27:01.134Z,5.80
2019-03-05T01:29:29.068Z,7.77
2019-03-05T01:32:19.020Z,7.10
2019-03-05T01:35:05.714Z,5.03
2019-03-05T01:37:33.567Z,6.73
2019-03-05T01:40:24.437Z,5.07
2019-03-05T01:42:52.480Z,7.57
2019-03-05T01:45:20.328Z,5.33
2019-03-05T01:47:48.247Z,8.80
2019-03-05T01:50:16.079Z,4.63
2019-03-05T01:52:43.819Z,3.77
2019-03-05T01:55:11.855Z,6.37
2019-03-05T01:57:39.791Z,6.03
2019-03-05T02:00:08.533Z,5.80
2019-03-05T02:02:36.455Z,4.23
2019-03-05T02:05:04.972Z,5.80
2019-03-05T02:07:32.826Z,5.00
2019-03-05T02:10:00.786Z,7.60
2019-03-05T02:12:28.679Z,4.73
2019-03-05T02:14:56.641Z,3.33
2019-03-05T02:17:24.675Z,8.93
2019-03-05T02:19:52.574Z,2.83
2019-03-05T02:22:37.820Z,2.90
2019-03-05T02:25:10.042Z,3.87
2019-03-05T02:27:49.643Z,4.60
2019-03-05T02:30:21.889Z,5.87
2019-03-05T02:33:14.958Z,4.20
2019-03-05T02:36:02.116Z,6.13
2019-03-05T02:38:39.357Z,4.43
2019-03-05T02:41:18.428Z,5.07
2019-03-05T02:44:08.379Z,5.07
2019-03-05T02:47:07.405Z,5.07
2019-03-05T02:50:03.494Z,5.47
2019-03-05T02:52:43.891Z,4.93
2019-03-05T02:55:19.915Z,3.57
2019-03-05T02:57:47.014Z,2.97
2019-03-05T03:00:19.456Z,6.30
2019-03-05T03:02:52.640Z,4.40
2019-03-05T03:05:39.972Z,4.50
2019-03-05T03:08:09.427Z,4.70
2019-03-05T03:10:37.485Z,5.10
2019-03-05T03:13:05.229Z,4.90
2019-03-05T03:15:33.140Z,6.27
2019-03-05T03:18:01.048Z,7.37
2019-03-05T03:20:28.917Z,5.80
2019-03-05T03:22:56.837Z,5.00
2019-03-05T03:25:24.760Z,5.40
2019-03-05T03:27:52.714Z,6.40
2019-03-05T03:30:21.498Z,5.07
2019-03-05T03:32:49.383Z,6.70
2019-03-05T03:35:17.184Z,4.33
2019-03-05T03:37:45.069Z,4.70
2019-03-05T03:40:14.218Z,4.13
2019-03-05T03:42:42.068Z,4.20
2019-03-05T03:45:11.329Z,4.30
2019-03-05T03:47:39.229Z,7.87
2019-03-05T03:50:07.331Z,4.10
2019-03-05T03:52:35.232Z,5.70
2019-03-05T03:55:03.451Z,7.57
2019-03-05T03:57:31.330Z,7.13
2019-03-05T03:59:59.245Z,8.57
2019-03-05T04:02:27.270Z,7.47
2019-03-05T04:04:55.128Z,5.33
2019-03-05T04:07:23.147Z,6.43
2019-03-05T04:09:51.043Z,5.73
2019-03-05T04:12:18.839Z,5.93
2019-03-05T04:14:46.746Z,8.40
2019-03-05T04:17:14.516Z,7.50
2019-03-05T04:19:42.516Z,6.60
2019-03-05T04:22:10.520Z,11.43
2019-03-05T04:24:38.372Z,4.33
2019-03-05T04:27:06.352Z,7.90
2019-03-05T04:29:34.525Z,4.67
2019-03-05T04:32:02.378Z,14.40
2019-03-05T04:34:30.227Z,4.07
2019-03-05T04:36:58.256Z,5.70
2019-03-05T04:39:26.156Z,6.43
2019-03-05T04:41:54.024Z,4.23
2019-03-05T04:44:36.787Z,5.57
2019-03-05T04:47:04.727Z,3.87
2019-03-05T04:49:40.299Z,6.37
2019-03-05T04:52:13.467Z,6.77
2019-03-05T04:54:41.308Z,3.67
2019-03-05T04:57:09.227Z,5.20
2019-03-05T04:59:37.152Z,5.37
2019-03-05T05:02:05.107Z,4.07
2019-03-05T05:04:33.052Z,6.53
2019-03-05T05:07:01.055Z,5.30
2019-03-05T05:09:29.037Z,3.13
2019-03-05T05:11:56.958Z,4.13
2019-03-05T05:14:24.747Z,4.80
2019-03-05T05:16:52.639Z,5.80
2019-03-05T05:19:20.722Z,5.60
2019-03-05T05:21:48.561Z,7.33
2019-03-05T05:24:16.389Z,7.00
2019-03-05T05:26:44.331Z,4.37
2019-03-05T05:29:12.159Z,5.57
2019-03-05T05:31:40.023Z,10.63
2019-03-05T05:34:07.958Z,6.37
2019-03-05T05:36:35.873Z,5.13
2019-03-05T05:39:05.049Z,3.87
2019-03-05T05:41:33.373Z,5.80
2019-03-05T05:44:01.308Z,7.53
2019-03-05T05:46:29.182Z,8.07
2019-03-05T05:48:57.147Z,7.90
2019-03-05T05:51:24.891Z,8.07
2019-03-05T05:53:52.879Z,11.53
2019-03-05T05:56:20.822Z,7.60
2019-03-05T05:58:48.688Z,8.60
2019-03-05T06:01:16.492Z,13.40
2019-03-05T06:03:44.303Z,10.00
2019-03-05T06:06:13.154Z,9.87
2019-03-05T06:08:41.000Z,12.47
2019-03-05T06:11:08.931Z,10.87
2019-03-05T06:13:36.939Z,9.67
2019-03-05T06:16:04.775Z,8.20
2019-03-05T06:18:32.723Z,8.53
2019-03-05T06:21:00.619Z,12.93
2019-03-05T06:23:28.592Z,9.03
2019-03-05T06:25:56.428Z,15.10
2019-03-05T06:28:24.320Z,11.13
2019-03-05T06:30:52.183Z,10.57
2019-03-05T06:33:20.086Z,10.30
2019-03-05T06:35:47.920Z,13.17
2019-03-05T06:38:15.951Z,8.77
2019-03-05T06:40:43.708Z,14.07
2019-03-05T06:43:11.633Z,11.40
2019-03-05T06:45:39.490Z,12.50
2019-03-05T06:48:07.812Z,13.10
2019-03-05T06:50:35.618Z,14.47
2019-03-05T06:53:03.543Z,16.20
2019-03-05T06:55:31.426Z,14.03
2019-03-05T06:57:59.329Z,14.10
2019-03-05T07:00:39.850Z,13.73
2019-03-05T07:03:08.168Z,13.10
2019-03-05T07:05:53.919Z,13.73
2019-03-05T07:08:21.724Z,14.37
2019-03-05T07:10:54.090Z,11.10
2019-03-05T07:13:21.922Z,11.27
2019-03-05T07:16:24.423Z,14.30
2019-03-05T07:18:54.400Z,13.57
2019-03-05T07:21:44.552Z,11.27
2019-03-05T07:24:24.544Z,10.87
2019-03-05T07:26:52.443Z,11.03
2019-03-05T07:29:20.297Z,10.70
2019-03-05T07:31:48.245Z,11.20
2019-03-05T07:34:25.563Z,9.63
2019-03-05T07:36:53.877Z,9.87
2019-03-05T07:39:22.404Z,15.43
2019-03-05T07:41:50.236Z,12.73
2019-03-05T07:44:18.127Z,12.00
2019-03-05T07:46:46.126Z,11.90
2019-03-05T07:49:14.102Z,12.90
2019-03-05T07:51:42.030Z,15.37
2019-03-05T07:54:09.825Z,11.53
2019-03-05T07:56:37.801Z,10.33
2019-03-05T07:59:05.719Z,15.30
2019-03-05T08:01:33.534Z,11.20
2019-03-05T08:04:01.387Z,9.10
2019-03-05T08:06:29.551Z,10.23
2019-03-05T08:09:15.670Z,11.40
2019-03-05T08:11:43.580Z,12.27
2019-03-05T08:14:29.434Z,12.67
2019-03-05T08:16:58.851Z,11.00
2019-03-05T08:19:26.763Z,8.90
2019-03-05T08:21:54.786Z,14.27
2019-03-05T08:24:22.810Z,8.23
2019-03-05T08:26:50.794Z,9.77
2019-03-05T08:29:18.866Z,6.23
2019-03-05T08:31:46.894Z,8.10
2019-03-05T08:34:14.807Z,12.97
2019-03-05T08:36:42.803Z,9.73
2019-03-05T08:39:10.912Z,9.77
2019-03-05T08:41:38.815Z,8.27
2019-03-05T08:44:06.696Z,10.43
2019-03-05T08:46:34.700Z,6.40
2019-03-05T08:49:02.712Z,6.00
2019-03-05T08:51:30.583Z,7.77
2019-03-05T08:53:58.503Z,5.77
2019-03-05T08:56:26.413Z,10.87
2019-03-05T08:58:54.301Z,8.20
2019-03-05T09:01:22.207Z,7.60
2019-03-05T09:03:50.132Z,5.33
2019-03-05T09:06:17.984Z,9.03
2019-03-05T09:08:45.917Z,9.70
2019-03-05T09:11:13.828Z,12.13
2019-03-05T09:13:41.684Z,8.63
2019-03-05T09:16:09.613Z,7.70
2019-03-05T09:18:37.513Z,9.30
2019-03-05T09:21:05.377Z,12.83
2019-03-05T09:23:33.396Z,11.63
2019-03-05T09:26:01.121Z,9.40
2019-03-05T09:28:29.013Z,6.63
2019-03-05T09:30:56.914Z,7.93
2019-03-05T09:33:24.831Z,7.93
2019-03-05T09:35:52.694Z,10.40
2019-03-05T09:38:20.712Z,9.73
2019-03-05T09:40:48.718Z,11.37
2019-03-05T09:43:16.592Z,7.30
2019-03-05T09:45:44.639Z,10.67
2019-03-05T09:48:12.417Z,8.07
2019-03-05T09:50:40.284Z,14.83
2019-03-05T09:53:08.203Z,10.77
2019-03-05T09:55:36.230Z,10.53
2019-03-05T09:58:08.393Z,8.50
2019-03-05T10:00:34.576Z,9.77
2019-03-05T10:03:02.483Z,8.00
2019-03-05T10:05:30.368Z,5.83
2019-03-05T10:07:58.287Z,10.70
2019-03-05T10:10:26.296Z,7.83
2019-03-05T10:12:54.352Z,7.67
2019-03-05T10:15:22.297Z,7.87
2019-03-05T10:17:50.503Z,7.17
2019-03-05T10:20:20.725Z,5.60
2019-03-05T10:22:48.951Z,6.63
2019-03-05T10:25:17.585Z,7.10
2019-03-05T10:27:45.585Z,11.67
2019-03-05T10:30:24.302Z,6.67
2019-03-05T10:32:44.705Z,6.20
2019-03-05T10:35:12.776Z,9.23
2019-03-05T10:37:40.814Z,6.20
2019-03-05T10:40:09.847Z,5.80
2019-03-05T10:42:37.578Z,10.30
2019-03-05T10:45:05.779Z,12.93
2019-03-05T10:47:33.590Z,15.03
2019-03-05T10:50:01.368Z,6.37
2019-03-05T10:52:29.308Z,7.13
2019-03-05T10:54:57.188Z,11.47
2019-03-05T10:57:25.048Z,11.83
2019-03-05T10:59:53.193Z,4.70
2019-03-05T11:02:21.013Z,7.53
2019-03-05T11:04:48.859Z,8.87
2019-03-05T11:07:16.901Z,6.83
2019-03-05T11:09:44.795Z,11.83
2019-03-05T11:12:12.763Z,11.73
2019-03-05T11:14:40.785Z,11.50
2019-03-05T11:17:08.597Z,7.80
2019-03-05T11:19:36.474Z,8.70
2019-03-05T11:22:04.587Z,7.27
2019-03-05T11:24:32.708Z,5.77
2019-03-05T11:27:00.368Z,6.23
2019-03-05T11:29:28.300Z,6.97
2019-03-05T11:31:55.922Z,6.20
2019-03-05T11:34:23.704Z,7.07
2019-03-05T11:36:51.787Z,6.87
2019-03-05T11:39:19.699Z,9.93
2019-03-05T11:41:47.664Z,7.83
2019-03-05T11:44:15.619Z,8.17
2019-03-05T11:46:43.642Z,6.63
2019-03-05T11:49:11.471Z,8.07
2019-03-05T11:51:39.404Z,8.47
2019-03-05T11:54:07.295Z,12.20
2019-03-05T11:56:35.170Z,5.67
2019-03-05T11:59:03.103Z,8.20
2019-03-05T12:01:37.007Z,11.60
2019-03-05T12:04:04.935Z,4.20
2019-03-05T12:06:33.868Z,8.23
2019-03-05T12:09:01.958Z,4.50
2019-03-05T12:11:29.854Z,5.83
2019-03-05T12:13:57.873Z,5.00
2019-03-05T12:16:25.885Z,3.23
2019-03-05T12:18:53.744Z,7.23
2019-03-05T12:21:21.687Z,7.57
2019-03-05T12:23:49.593Z,7.17
2019-03-05T12:26:17.386Z,7.40
2019-03-05T12:28:45.272Z,7.07
2019-03-05T12:31:13.077Z,6.17
2019-03-05T12:33:41.045Z,7.07
2019-03-05T12:36:09.194Z,8.67
2019-03-05T12:38:37.075Z,9.53
2019-03-05T12:41:04.950Z,6.57
2019-03-05T12:43:32.959Z,7.77
2019-03-05T12:46:00.803Z,9.13
2019-03-05T12:48:39.229Z,8.43
2019-03-05T12:50:58.589Z,13.60
2019-03-05T12:53:26.364Z,7.30
2019-03-05T12:55:54.318Z,8.83
2019-03-05T12:58:22.315Z,7.87
2019-03-05T13:00:50.133Z,4.23
2019-03-05T13:03:17.904Z,9.13
2019-03-05T13:05:45.843Z,4.27
2019-03-05T13:08:13.723Z,7.30
2019-03-05T13:10:41.694Z,5.50
2019-03-05T13:13:10.479Z,8.00
2019-03-05T13:15:39.478Z,8.07
2019-03-05T13:18:07.456Z,9.30
2019-03-05T13:20:35.516Z,8.27
2019-03-05T13:23:08.488Z,7.60
2019-03-05T13:25:33.413Z,5.80
2019-03-05T13:28:04.031Z,5.63
2019-03-05T13:30:30.976Z,6.23
2019-03-05T13:33:00.527Z,5.70
2019-03-05T13:35:30.360Z,12.97
2019-03-05T13:37:58.768Z,8.20
2019-03-05T13:40:26.968Z,4.40
2019-03-05T13:42:54.996Z,6.70
2019-03-05T13:45:23.400Z,10.60
2019-03-05T13:47:55.972Z,9.03
2019-03-05T13:50:48.965Z,7.97
2019-03-05T13:53:30.282Z,9.63
2019-03-05T13:56:16.150Z,5.63
2019-03-05T13:59:18.368Z,5.43
2019-03-05T14:01:46.288Z,6.37
2019-03-05T14:04:16.753Z,4.80
2019-03-05T14:06:48.126Z,7.40
2019-03-05T14:09:16.363Z,7.67
2019-03-05T14:11:44.710Z,8.07
2019-03-05T14:14:17.090Z,7.03
2019-03-05T14:16:45.752Z,7.97
2019-03-05T14:19:13.591Z,6.70
2019-03-05T14:21:41.468Z,7.17
2019-03-05T14:24:09.400Z,9.20
2019-03-05T14:26:37.380Z,10.90
2019-03-05T14:29:05.760Z,6.83
2019-03-05T14:31:33.885Z,7.20
2019-03-05T14:34:01.835Z,6.90
2019-03-05T14:36:29.673Z,4.30
2019-03-05T14:38:57.496Z,11.07
2019-03-05T14:41:25.315Z,5.27
2019-03-05T14:43:53.311Z,7.40
2019-03-05T14:46:21.299Z,4.60
2019-03-05T14:48:49.201Z,7.57
2019-03-05T14:51:17.162Z,6.97
2019-03-05T14:54:04.754Z,10.87
2019-03-05T14:56:32.703Z,10.93
2019-03-05T14:59:00.609Z,5.73
2019-03-05T15:01:28.960Z,11.27
2019-03-05T15:03:56.781Z,8.20
2019-03-05T15:06:24.663Z,8.93
2019-03-05T15:08:52.853Z,9.43
2019-03-05T15:11:20.822Z,6.70
2019-03-05T15:13:48.728Z,9.23
2019-03-05T15:16:16.881Z,19.53
2019-03-05T15:18:44.888Z,10.40
2019-03-05T15:21:12.765Z,7.03
2019-03-05T15:23:40.722Z,6.73
2019-03-05T15:26:08.594Z,6.43
2019-03-05T15:28:36.505Z,7.37
2019-03-05T15:31:04.613Z,13.13
2019-03-05T15:33:32.437Z,5.47
2019-03-05T15:36:00.409Z,6.83
2019-03-05T15:38:28.578Z,5.60
2019-03-05T15:40:56.462Z,11.13
2019-03-05T15:43:24.312Z,6.03
2019-03-05T15:45:52.280Z,7.57
2019-03-05T15:48:20.334Z,7.37
2019-03-05T15:50:48.421Z,8.97
2019-03-05T15:53:16.231Z,9.50
2019-03-05T15:55:43.951Z,10.13
2019-03-05T15:58:11.913Z,12.50
2019-03-05T16:00:40.039Z,19.20
2019-03-05T16:03:07.924Z,7.53
2019-03-05T16:05:35.788Z,9.87
2019-03-05T16:08:03.837Z,7.43
2019-03-05T16:10:31.765Z,8.60
2019-03-05T16:12:59.607Z,8.53
2019-03-05T16:15:27.528Z,7.67
2019-03-05T16:17:55.483Z,7.50
2019-03-05T16:20:25.738Z,7.13
2019-03-05T16:22:55.139Z,7.00
2019-03-05T16:25:23.199Z,11.17
2019-03-05T16:27:50.988Z,10.63
2019-03-05T16:30:37.252Z,7.17
2019-03-05T16:36:25.370Z,7.30
2019-03-05T16:39:12.496Z,6.47
2019-03-05T16:42:11.755Z,5.57
2019-03-05T16:45:14.343Z,9.00
2019-03-05T16:48:01.547Z,9.90
2019-03-05T16:48:18.923Z,7.83
2019-03-05T16:50:58.134Z,6.47
2019-03-05T16:53:42.175Z,7.20
2019-03-05T16:56:28.412Z,7.17
2019-03-05T16:59:18.589Z,8.63
2019-03-05T17:02:11.845Z,11.37
2019-03-05T17:05:07.848Z,8.30
2019-03-05T17:07:53.520Z,6.37
2019-03-05T17:10:39.624Z,6.10
2019-03-05T17:13:07.490Z,8.83
2019-03-05T17:15:35.561Z,4.40
2019-03-05T17:18:03.554Z,8.13
2019-03-05T17:20:31.563Z,7.77
2019-03-05T17:22:59.555Z,5.70
2019-03-05T17:25:27.639Z,9.83
2019-03-05T17:27:55.469Z,7.97
2019-03-05T17:30:23.333Z,10.57
2019-03-05T17:32:51.366Z,11.20
2019-03-05T17:35:19.166Z,11.73
2019-03-05T17:37:47.481Z,11.77
2019-03-05T17:40:15.396Z,12.47
2019-03-05T17:42:43.275Z,6.53
2019-03-05T17:45:12.718Z,9.40
2019-03-05T17:47:40.776Z,11.97
2019-03-05T17:50:09.437Z,15.27
2019-03-05T17:52:37.399Z,11.80
2019-03-05T17:55:06.364Z,10.97
2019-03-05T17:57:34.264Z,9.43
2019-03-05T18:00:02.216Z,9.43
2019-03-05T18:02:30.393Z,9.93
2019-03-05T18:04:58.504Z,13.50
2019-03-05T18:07:26.364Z,8.83
2019-03-05T18:09:54.202Z,11.43
2019-03-05T18:12:22.203Z,8.30
2019-03-05T18:14:50.036Z,16.37
2019-03-05T18:17:18.003Z,12.23
2019-03-05T18:19:45.941Z,14.27
2019-03-05T18:22:14.191Z,14.17
2019-03-05T18:24:42.262Z,14.57
2019-03-05T18:27:10.024Z,10.87
2019-03-05T18:29:37.993Z,19.30
2019-03-05T18:32:06.183Z,12.87
2019-03-05T18:34:34.175Z,15.77
2019-03-05T18:37:02.195Z,11.67
2019-03-05T18:39:30.280Z,19.33
2019-03-05T18:41:58.409Z,14.30
2019-03-05T18:44:26.424Z,15.73
2019-03-05T18:46:54.409Z,23.23
2019-03-05T18:49:22.322Z,20.80
2019-03-05T18:51:50.220Z,14.13
2019-03-05T18:54:18.091Z,14.50
2019-03-05T18:56:45.925Z,14.97
2019-03-05T18:59:13.987Z,12.07
2019-03-05T19:01:42.011Z,14.90
2019-03-05T19:04:09.961Z,13.90
2019-03-05T19:06:37.838Z,16.10
2019-03-05T19:09:05.958Z,11.30
2019-03-05T19:11:34.070Z,17.83
2019-03-05T19:14:01.923Z,12.93
2019-03-05T19:16:30.110Z,12.00
2019-03-05T19:18:58.080Z,13.67
2019-03-05T19:21:26.321Z,20.63
2019-03-05T19:23:54.169Z,20.53
2019-03-05T19:26:22.043Z,17.67
2019-03-05T19:28:49.918Z,13.50
2019-03-05T19:31:18.056Z,14.33
2019-03-05T19:33:46.298Z,14.60
2019-03-05T19:36:14.267Z,10.97
2019-03-05T19:38:42.162Z,15.57
2019-03-05T19:41:10.063Z,9.43
2019-03-05T19:43:38.070Z,12.53
2019-03-05T19:46:05.969Z,12.07
2019-03-05T19:48:33.973Z,11.73
2019-03-05T19:51:01.880Z,13.60
2019-03-05T19:53:29.784Z,13.13
2019-03-05T19:55:57.672Z,11.77
2019-03-05T19:58:25.453Z,11.67
2019-03-05T20:01:09.552Z,12.40
2019-03-05T20:03:37.449Z,15.37
2019-03-05T20:06:05.628Z,9.93
2019-03-05T20:08:39.749Z,14.30
2019-03-05T20:11:03.512Z,16.10
2019-03-05T20:13:31.291Z,14.30
2019-03-05T20:15:59.272Z,15.77
2019-03-05T20:18:27.107Z,14.17
2019-03-05T20:20:54.974Z,16.50
2019-03-05T20:23:23.199Z,11.43
2019-03-05T20:25:51.375Z,17.00
2019-03-05T20:28:19.288Z,15.87
2019-03-05T20:30:47.200Z,17.10
2019-03-05T20:33:15.175Z,16.10
2019-03-05T20:35:43.108Z,11.23
2019-03-05T20:38:11.511Z,13.00
2019-03-05T20:40:39.441Z,10.93
2019-03-05T20:43:07.721Z,10.80
2019-03-05T20:45:35.750Z,11.27
2019-03-05T20:48:03.708Z,6.97
2019-03-05T20:50:31.927Z,8.63
2019-03-05T20:52:59.927Z,8.80
2019-03-05T20:55:27.864Z,9.70
2019-03-05T20:57:55.949Z,6.93
2019-03-05T21:00:26.288Z,7.70
2019-03-05T21:02:55.691Z,8.47
2019-03-05T21:05:24.586Z,7.03
2019-03-05T21:07:54.188Z,7.37
2019-03-05T21:10:23.612Z,7.13
2019-03-05T21:12:52.482Z,6.70
2019-03-05T21:15:21.063Z,11.17
2019-03-05T21:17:49.369Z,8.77
2019-03-05T21:20:17.717Z,10.50
2019-03-05T21:22:46.987Z,10.83
2019-03-05T21:25:16.315Z,6.83
2019-03-05T21:27:45.651Z,8.43
2019-03-05T21:30:15.633Z,7.20
2019-03-05T21:32:43.766Z,8.80
2019-03-05T21:35:11.858Z,11.53
2019-03-05T21:37:41.097Z,8.20
2019-03-05T21:40:11.060Z,8.60
2019-03-05T21:42:38.930Z,8.23
2019-03-05T21:45:07.729Z,7.07
2019-03-05T21:47:35.580Z,5.83
2019-03-05T21:50:04.395Z,7.50
2019-03-05T21:52:33.004Z,6.07
2019-03-05T21:55:00.966Z,8.93
2019-03-05T21:57:29.131Z,8.27
2019-03-05T21:59:57.217Z,6.10
2019-03-05T22:02:25.134Z,7.17
2019-03-05T22:04:53.359Z,11.10
2019-03-05T22:07:21.337Z,6.63
2019-03-05T22:09:49.326Z,7.20
2019-03-05T22:12:17.216Z,7.37
2019-03-05T22:14:45.198Z,6.23
2019-03-05T22:17:13.058Z,7.30
2019-03-05T22:19:41.160Z,7.63
2019-03-05T22:22:09.154Z,6.50
2019-03-05T22:24:37.043Z,8.07
2019-03-05T22:27:04.917Z,8.27
2019-03-05T22:29:32.928Z,7.17
2019-03-05T22:32:01.061Z,7.13
2019-03-05T22:34:28.941Z,7.53
2019-03-05T22:36:56.875Z,6.90
2019-03-05T22:39:25.685Z,7.80
2019-03-05T22:41:53.680Z,5.57
2019-03-05T22:44:21.750Z,6.23
2019-03-05T22:46:49.579Z,7.00
2019-03-05T22:49:17.556Z,6.90
2019-03-05T22:51:45.460Z,7.63
2019-03-05T22:54:13.299Z,11.70
2019-03-05T22:56:41.147Z,5.80
2019-03-05T22:59:09.087Z,6.53
2019-03-05T23:01:40.868Z,8.23
2019-03-05T23:04:09.601Z,7.10
2019-03-05T23:06:37.876Z,5.97
2019-03-05T23:09:09.431Z,8.33
2019-03-05T23:11:37.908Z,7.70
2019-03-05T23:14:05.982Z,6.27
2019-03-05T23:16:34.153Z,6.80
2019-03-05T23:19:02.225Z,9.33
2019-03-05T23:21:30.397Z,5.87
2019-03-05T23:23:58.570Z,8.07
2019-03-05T23:26:26.745Z,5.17
2019-03-05T23:28:54.917Z,7.27
2019-03-05T23:31:22.987Z,5.50
2019-03-05T23:33:51.160Z,5.60
2019-03-05T23:36:19.334Z,7.20
2019-03-05T23:38:47.404Z,4.63
2019-03-05T23:41:17.420Z,8.87
2019-03-05T23:43:45.595Z,6.07
2019-03-05T23:46:13.767Z,7.33
2019-03-05T23:48:42.183Z,6.57
2019-03-05T23:51:10.216Z,5.80
2019-03-05T23:53:38.286Z,4.70
2019-03-05T23:56:06.401Z,5.77
2019-03-05T23:58:34.742Z,4.73
